createdAt,value
2023-05-05T00:01:09.853Z,16.69
2023-05-05T00:03:39.692Z,16.30
2023-05-05T00:06:09.477Z,16.60
2023-05-05T00:08:36.359Z,15.44
2023-05-05T00:11:03.129Z,16.03
2023-05-05T00:13:29.963Z,16.29
2023-05-05T00:15:58.826Z,16.00
2023-05-05T00:18:25.657Z,16.38
2023-05-05T00:20:52.531Z,16.24
2023-05-05T00:23:23.900Z,16.34
2023-05-05T00:25:50.585Z,16.46
2023-05-05T00:28:17.407Z,16.22
2023-05-05T00:30:45.661Z,16.34
2023-05-05T00:33:15.150Z,16.37
2023-05-05T00:35:44.836Z,16.22
2023-05-05T00:38:11.709Z,16.29
2023-05-05T00:40:38.481Z,16.29
2023-05-05T00:43:10.325Z,16.30
2023-05-05T00:45:37.670Z,16.24
2023-05-05T00:48:07.667Z,16.24
2023-05-05T00:50:35.181Z,16.05
2023-05-05T00:53:07.626Z,16.21
2023-05-05T00:55:35.552Z,15.73
2023-05-05T00:58:08.795Z,15.76
2023-05-05T01:00:37.835Z,16.35
2023-05-05T01:03:05.389Z,16.45
2023-05-05T01:05:47.332Z,16.43
2023-05-05T01:08:41.025Z,15.97
2023-05-05T01:11:31.684Z,16.21
2023-05-05T01:14:25.576Z,15.65
2023-05-05T01:17:02.692Z,16.21
2023-05-05T01:19:56.814Z,16.12
2023-05-05T01:22:53.583Z,16.20
2023-05-05T01:25:33.778Z,16.21
2023-05-05T01:28:28.860Z,16.11
2023-05-05T01:31:44.352Z,15.96
2023-05-05T01:34:18.752Z,15.86
2023-05-05T01:37:15.104Z,16.08
2023-05-05T01:39:44.770Z,15.99
2023-05-05T01:42:16.751Z,16.08
2023-05-05T01:44:45.007Z,15.74
2023-05-05T01:47:22.410Z,16.07
2023-05-05T01:49:54.091Z,16.00
2023-05-05T01:52:22.758Z,15.98
2023-05-05T01:54:50.871Z,15.48
2023-05-05T01:57:19.394Z,15.98
2023-05-05T01:59:46.588Z,15.83
2023-05-05T02:02:15.600Z,15.79
2023-05-05T02:05:20.213Z,15.87
2023-05-05T02:07:57.084Z,15.42
2023-05-05T02:10:24.470Z,15.77
2023-05-05T02:12:52.327Z,15.85
2023-05-05T02:15:21.994Z,15.66
2023-05-05T02:17:52.051Z,15.59
2023-05-05T02:20:20.297Z,15.47
2023-05-05T02:22:47.512Z,15.65
2023-05-05T02:25:15.459Z,15.45
2023-05-05T02:27:46.237Z,15.65
2023-05-05T02:30:16.070Z,15.28
2023-05-05T02:33:13.015Z,15.66
2023-05-05T02:35:45.721Z,15.38
2023-05-05T02:38:21.911Z,15.38
2023-05-05T02:40:56.512Z,15.02
2023-05-05T02:43:32.356Z,15.31
2023-05-05T02:46:01.222Z,14.78
2023-05-05T02:48:29.852Z,15.35
2023-05-05T02:50:58.128Z,15.37
2023-05-05T02:53:27.363Z,14.33
2023-05-05T02:56:21.389Z,15.24
2023-05-05T02:58:56.948Z,15.22
2023-05-05T03:01:26.897Z,15.24
2023-05-05T03:04:04.888Z,15.28
2023-05-05T03:06:35.429Z,15.20
2023-05-05T03:09:19.529Z,15.40
2023-05-05T03:12:07.228Z,15.21
2023-05-05T03:16:02.258Z,15.36
2023-05-05T03:22:08.980Z,15.29
2023-05-05T03:24:41.519Z,15.24
2023-05-05T03:27:16.822Z,15.26
2023-05-05T03:29:46.140Z,14.97
2023-05-05T03:32:13.245Z,15.44
2023-05-05T03:34:45.622Z,15.59
2023-05-05T03:37:48.696Z,15.71
2023-05-05T03:40:18.350Z,15.43
2023-05-05T03:42:44.938Z,15.69
2023-05-05T03:45:12.174Z,15.72
2023-05-05T03:47:40.293Z,16.19
2023-05-05T03:50:09.280Z,16.03
2023-05-05T03:52:40.711Z,16.02
2023-05-05T03:55:07.813Z,16.22
2023-05-05T03:57:34.665Z,16.07
2023-05-05T04:00:01.502Z,15.75
2023-05-05T04:02:29.155Z,15.43
2023-05-05T04:04:56.143Z,15.62
2023-05-05T04:07:25.051Z,15.72
2023-05-05T04:09:55.168Z,15.75
2023-05-05T04:12:23.315Z,15.66
2023-05-05T04:14:55.402Z,15.60
2023-05-05T04:17:22.255Z,15.52
2023-05-05T04:20:00.498Z,15.45
2023-05-05T04:22:27.456Z,15.44
2023-05-05T04:24:54.630Z,15.31
2023-05-05T04:27:30.104Z,14.83
2023-05-05T04:29:57.149Z,15.08
2023-05-05T04:32:23.841Z,15.24
2023-05-05T04:34:50.707Z,15.28
2023-05-05T04:37:17.371Z,15.30
2023-05-05T04:39:55.243Z,15.32
2023-05-05T04:42:21.923Z,15.30
2023-05-05T04:44:50.736Z,15.31
2023-05-05T04:47:17.629Z,15.27
2023-05-05T04:49:45.050Z,14.49
2023-05-05T04:52:17.785Z,15.39
2023-05-05T04:54:44.386Z,15.54
2023-05-05T04:57:19.454Z,15.34
2023-05-05T04:59:46.325Z,15.59
2023-05-05T05:02:13.148Z,15.62
2023-05-05T05:04:40.067Z,15.97
2023-05-05T05:07:06.684Z,16.06
2023-05-05T05:09:33.422Z,15.83
2023-05-05T05:12:01.300Z,16.12
2023-05-05T05:14:28.277Z,15.86
2023-05-05T05:16:55.029Z,16.16
2023-05-05T05:19:21.797Z,16.19
2023-05-05T05:21:53.248Z,16.20
2023-05-05T05:24:19.905Z,16.26
2023-05-05T05:26:47.651Z,16.22
2023-05-05T05:29:14.493Z,16.22
2023-05-05T05:31:41.428Z,16.27
2023-05-05T05:34:08.711Z,16.48
2023-05-05T05:36:36.452Z,16.08
2023-05-05T05:39:04.160Z,16.32
2023-05-05T05:41:31.653Z,16.30
2023-05-05T05:43:58.265Z,16.48
2023-05-05T05:46:28.189Z,16.45
2023-05-05T05:48:55.036Z,16.48
2023-05-05T05:51:21.700Z,16.51
2023-05-05T05:53:52.132Z,16.39
2023-05-05T05:56:20.857Z,16.58
2023-05-05T05:58:49.953Z,16.78
2023-05-05T06:01:17.268Z,16.88
2023-05-05T06:03:46.377Z,16.45
2023-05-05T06:06:16.173Z,16.96
2023-05-05T06:08:43.170Z,16.69
2023-05-05T06:11:11.452Z,16.81
2023-05-05T06:13:38.340Z,16.96
2023-05-05T06:16:15.105Z,17.03
2023-05-05T06:18:58.759Z,16.98
2023-05-05T06:21:25.911Z,17.26
2023-05-05T06:23:55.713Z,16.89
2023-05-05T06:26:26.169Z,17.14
2023-05-05T06:28:53.112Z,17.36
2023-05-05T06:31:19.889Z,17.12
2023-05-05T06:33:46.680Z,16.69
2023-05-05T06:36:17.330Z,16.87
2023-05-05T06:38:54.988Z,17.43
2023-05-05T06:41:22.468Z,17.54
2023-05-05T06:43:49.216Z,17.80
2023-05-05T06:46:15.976Z,17.83
2023-05-05T06:48:42.908Z,17.65
2023-05-05T06:51:10.184Z,17.85
2023-05-05T06:53:37.618Z,17.57
2023-05-05T06:56:04.806Z,17.86
2023-05-05T06:58:33.274Z,17.97
2023-05-05T07:00:59.931Z,18.10
2023-05-05T07:03:28.029Z,17.66
2023-05-05T07:05:55.310Z,17.96
2023-05-05T07:08:22.284Z,17.99
2023-05-05T07:10:49.264Z,18.10
2023-05-05T07:13:17.385Z,18.19
2023-05-05T07:15:46.627Z,18.22
2023-05-05T07:18:14.396Z,18.35
2023-05-05T07:20:42.242Z,18.13
2023-05-05T07:23:09.078Z,18.16
2023-05-05T07:25:36.071Z,18.18
2023-05-05T07:28:06.158Z,18.38
2023-05-05T07:30:32.807Z,18.55
2023-05-05T07:33:03.075Z,18.58
2023-05-05T07:35:30.539Z,18.55
2023-05-05T07:37:59.310Z,18.45
2023-05-05T07:40:26.267Z,18.64
2023-05-05T07:42:53.364Z,18.65
2023-05-05T07:45:20.184Z,18.39
2023-05-05T07:47:47.303Z,18.68
2023-05-05T07:50:14.153Z,18.51
2023-05-05T07:55:14.491Z,18.80
2023-05-05T07:57:41.595Z,18.62
2023-05-05T08:00:09.569Z,18.85
2023-05-05T08:02:36.744Z,18.78
2023-05-05T08:05:04.375Z,18.93
2023-05-05T08:07:31.162Z,18.33
2023-05-05T08:10:02.572Z,18.29
2023-05-05T08:12:31.424Z,18.78
2023-05-05T08:14:58.178Z,19.04
2023-05-05T08:17:27.282Z,18.99
2023-05-05T08:19:54.202Z,19.16
2023-05-05T08:22:22.398Z,19.02
2023-05-05T08:24:49.072Z,18.79
2023-05-05T08:27:17.182Z,18.93
2023-05-05T08:29:45.409Z,19.19
2023-05-05T08:32:21.495Z,19.18
2023-05-05T08:34:48.388Z,19.43
2023-05-05T08:37:15.105Z,19.39
2023-05-05T08:39:41.915Z,19.41
2023-05-05T08:42:09.448Z,19.15
2023-05-05T08:44:36.855Z,19.47
2023-05-05T08:47:13.536Z,19.16
2023-05-05T08:49:48.821Z,19.53
2023-05-05T08:52:23.641Z,19.63
2023-05-05T08:55:00.949Z,19.37
2023-05-05T08:57:46.579Z,19.20
2023-05-05T09:00:17.528Z,19.55
2023-05-05T09:02:45.253Z,19.53
2023-05-05T09:05:12.386Z,18.57
2023-05-05T09:07:43.798Z,19.93
2023-05-05T09:10:12.273Z,19.72
2023-05-05T09:12:42.890Z,19.71
2023-05-05T09:15:15.349Z,19.77
2023-05-05T09:17:43.259Z,19.87
2023-05-05T09:20:14.067Z,19.61
2023-05-05T09:22:43.113Z,20.11
2023-05-05T09:25:12.170Z,20.13
2023-05-05T09:27:45.717Z,20.23
2023-05-05T09:30:18.751Z,20.23
2023-05-05T09:32:52.954Z,20.43
2023-05-05T09:35:27.789Z,20.36
2023-05-05T09:37:54.883Z,20.53
2023-05-05T09:40:23.099Z,20.75
2023-05-05T09:43:02.293Z,20.64
2023-05-05T09:45:29.372Z,20.82
2023-05-05T09:47:59.527Z,20.68
2023-05-05T09:50:30.769Z,20.87
2023-05-05T09:53:00.162Z,20.82
2023-05-05T09:55:36.456Z,20.90
2023-05-05T09:58:24.562Z,21.01
2023-05-05T10:00:51.887Z,21.17
2023-05-05T10:03:25.203Z,20.82
2023-05-05T10:06:02.975Z,20.71
2023-05-05T10:08:31.674Z,21.30
2023-05-05T10:11:07.089Z,21.44
2023-05-05T10:13:51.149Z,21.51
2023-05-05T10:16:20.530Z,21.49
2023-05-05T10:18:47.711Z,21.68
2023-05-05T10:21:20.040Z,21.74
2023-05-05T10:23:58.119Z,21.97
2023-05-05T10:26:33.186Z,21.63
2023-05-05T10:29:09.143Z,21.91
2023-05-05T10:31:48.726Z,21.21
2023-05-05T10:34:29.698Z,21.56
2023-05-05T10:37:00.488Z,21.90
2023-05-05T10:39:28.299Z,21.78
2023-05-05T10:42:19.882Z,21.64
2023-05-05T10:44:49.372Z,21.89
2023-05-05T10:47:21.398Z,22.16
2023-05-05T10:49:51.979Z,22.15
2023-05-05T10:52:49.595Z,22.14
2023-05-05T10:55:21.252Z,22.15
2023-05-05T10:57:53.213Z,22.46
2023-05-05T11:00:38.718Z,22.31
2023-05-05T11:03:17.516Z,22.55
2023-05-05T11:06:09.228Z,22.56
2023-05-05T11:08:42.372Z,22.40
2023-05-05T11:11:11.372Z,22.47
2023-05-05T11:13:42.214Z,22.57
2023-05-05T11:16:48.366Z,22.86
2023-05-05T11:19:43.547Z,23.27
2023-05-05T11:22:11.009Z,23.10
2023-05-05T11:24:39.879Z,23.16
2023-05-05T11:27:15.573Z,22.90
2023-05-05T11:30:06.902Z,23.01
2023-05-05T11:32:33.977Z,23.20
2023-05-05T11:35:01.722Z,23.33
2023-05-05T11:37:32.114Z,22.99
2023-05-05T11:40:26.984Z,23.14
2023-05-05T11:43:05.752Z,22.89
2023-05-05T11:45:35.572Z,23.18
2023-05-05T11:48:25.059Z,23.36
2023-05-05T11:50:56.369Z,23.25
2023-05-05T11:53:23.420Z,23.77
2023-05-05T11:56:05.976Z,23.62
2023-05-05T11:58:43.349Z,23.36
2023-05-05T12:01:13.440Z,23.37
2023-05-05T12:03:45.328Z,23.86
2023-05-05T12:06:13.552Z,23.45
2023-05-05T12:08:42.847Z,23.59
2023-05-05T12:11:11.374Z,23.70
2023-05-05T12:13:38.192Z,23.63
2023-05-05T12:16:13.098Z,23.78
2023-05-05T12:18:40.709Z,24.04
2023-05-05T12:21:17.663Z,24.33
2023-05-05T12:23:45.052Z,24.46
2023-05-05T12:26:29.299Z,24.11
2023-05-05T12:29:00.404Z,24.56
2023-05-05T12:31:38.726Z,24.15
2023-05-05T12:34:13.653Z,24.44
2023-05-05T12:36:40.937Z,24.26
2023-05-05T12:39:08.294Z,24.70
2023-05-05T12:41:38.304Z,24.61
2023-05-05T12:44:05.294Z,24.85
2023-05-05T12:46:45.550Z,24.80
2023-05-05T12:49:12.875Z,24.59
2023-05-05T12:51:54.230Z,25.07
2023-05-05T12:54:23.069Z,25.40
2023-05-05T12:56:49.988Z,24.77
2023-05-05T12:59:27.670Z,25.51
2023-05-05T13:02:02.721Z,25.34
2023-05-05T13:04:47.674Z,25.31
2023-05-05T13:07:15.541Z,25.91
2023-05-05T13:09:42.638Z,25.06
2023-05-05T13:12:16.572Z,25.80
2023-05-05T13:14:44.425Z,25.80
2023-05-05T13:17:36.460Z,25.59
2023-05-05T13:20:03.305Z,25.69
2023-05-05T13:22:30.138Z,25.19
2023-05-05T13:24:58.023Z,24.99
2023-05-05T13:27:26.381Z,25.05
2023-05-05T13:29:59.721Z,25.05
2023-05-05T13:32:26.710Z,25.33
2023-05-05T13:34:54.794Z,24.53
2023-05-05T13:37:21.839Z,24.81
2023-05-05T13:39:48.796Z,24.43
2023-05-05T13:42:15.575Z,24.09
2023-05-05T13:44:58.746Z,24.02
2023-05-05T13:47:26.312Z,23.99
2023-05-05T13:49:53.332Z,23.59
2023-05-05T13:52:20.224Z,23.41
2023-05-05T13:54:46.906Z,23.00
2023-05-05T13:57:43.468Z,23.14
2023-05-05T14:00:16.579Z,22.95
2023-05-05T14:02:43.913Z,22.83
2023-05-05T14:05:11.174Z,22.79
2023-05-05T14:07:50.295Z,22.66
2023-05-05T14:10:18.903Z,22.56
2023-05-05T14:12:52.903Z,22.48
2023-05-05T14:16:18.606Z,22.34
2023-05-05T14:22:04.364Z,21.44
2023-05-05T14:24:32.835Z,21.42
2023-05-05T14:27:00.985Z,22.34
2023-05-05T14:29:50.951Z,21.23
2023-05-05T14:32:23.368Z,21.64
2023-05-05T14:34:51.638Z,21.12
2023-05-05T14:37:19.057Z,21.95
2023-05-05T14:39:46.014Z,22.13
2023-05-05T14:42:15.316Z,21.87
2023-05-05T14:44:42.049Z,22.44
2023-05-05T14:47:25.152Z,22.30
2023-05-05T14:49:56.357Z,22.37
2023-05-05T14:52:23.837Z,21.38
2023-05-05T14:54:50.625Z,22.08
2023-05-05T14:57:17.392Z,21.80
2023-05-05T14:59:46.024Z,22.36
2023-05-05T15:02:12.746Z,21.55
2023-05-05T15:04:40.910Z,22.07
2023-05-05T15:07:10.698Z,21.83
2023-05-05T15:09:38.731Z,22.23
2023-05-05T15:12:11.274Z,20.82
2023-05-05T15:14:40.993Z,21.81
2023-05-05T15:17:11.789Z,21.60
2023-05-05T15:19:38.625Z,21.77
2023-05-05T15:22:05.695Z,21.84
2023-05-05T15:24:32.561Z,21.77
2023-05-05T15:26:59.309Z,21.90
2023-05-05T15:29:26.088Z,21.76
2023-05-05T15:31:52.826Z,21.85
2023-05-05T15:34:20.997Z,21.84
2023-05-05T15:36:51.694Z,21.86
2023-05-05T15:39:18.963Z,21.86
2023-05-05T15:41:45.910Z,22.22
2023-05-05T15:44:13.128Z,21.70
2023-05-05T15:46:41.090Z,22.17
2023-05-05T15:49:07.743Z,21.89
2023-05-05T15:51:34.346Z,22.06
2023-05-05T15:54:01.219Z,22.12
2023-05-05T15:56:28.575Z,22.24
2023-05-05T15:58:55.323Z,22.34
2023-05-05T16:01:22.091Z,22.12
2023-05-05T16:03:48.776Z,21.78
2023-05-05T16:06:15.458Z,22.14
2023-05-05T16:08:42.504Z,22.24
2023-05-05T16:11:09.275Z,21.49
2023-05-05T16:13:36.302Z,20.46
2023-05-05T16:16:08.042Z,20.77
2023-05-05T16:18:36.205Z,21.70
2023-05-05T16:21:03.939Z,20.85
2023-05-05T16:23:30.768Z,20.69
2023-05-05T16:25:57.558Z,21.80
2023-05-05T16:28:25.017Z,21.46
2023-05-05T16:30:52.925Z,21.74
2023-05-05T16:33:21.473Z,22.01
2023-05-05T16:35:48.536Z,21.54
2023-05-05T16:38:15.233Z,21.65
2023-05-05T16:40:41.990Z,21.69
2023-05-05T16:43:08.768Z,21.40
2023-05-05T16:45:35.578Z,21.75
2023-05-05T16:48:02.455Z,21.68
2023-05-05T16:50:29.278Z,21.15
2023-05-05T16:52:58.421Z,21.65
2023-05-05T16:55:26.054Z,21.72
2023-05-05T16:57:55.234Z,21.46
2023-05-05T17:03:07.473Z,21.63
2023-05-05T17:05:34.186Z,21.73
2023-05-05T17:08:00.942Z,21.54
2023-05-05T17:10:30.898Z,21.22
2023-05-05T17:12:57.740Z,21.30
2023-05-05T17:15:24.613Z,20.63
2023-05-05T17:17:56.095Z,21.24
2023-05-05T17:20:22.799Z,21.57
2023-05-05T17:22:51.882Z,20.62
2023-05-05T17:25:18.987Z,21.66
2023-05-05T17:27:46.006Z,21.40
2023-05-05T17:30:13.316Z,20.21
2023-05-05T17:32:42.720Z,20.98
2023-05-05T17:35:18.146Z,20.93
2023-05-05T17:37:47.402Z,21.08
2023-05-05T17:40:14.778Z,21.06
2023-05-05T17:42:41.664Z,20.49
2023-05-05T17:45:12.257Z,20.67
2023-05-05T17:47:39.630Z,21.22
2023-05-05T17:50:07.149Z,20.90
2023-05-05T17:52:34.149Z,21.22
2023-05-05T17:55:04.384Z,21.32
2023-05-05T17:57:39.510Z,21.26
2023-05-05T18:00:07.232Z,21.11
2023-05-05T18:02:37.043Z,20.99
2023-05-05T18:05:05.533Z,21.08
2023-05-05T18:07:33.776Z,20.97
2023-05-05T18:10:00.724Z,20.64
2023-05-05T18:12:32.271Z,19.72
2023-05-05T18:15:03.498Z,20.90
2023-05-05T18:17:30.930Z,19.18
2023-05-05T18:19:57.912Z,20.52
2023-05-05T18:22:25.130Z,20.31
2023-05-05T18:25:00.457Z,20.18
2023-05-05T18:27:36.262Z,19.51
2023-05-05T18:30:05.080Z,20.43
2023-05-05T18:32:32.391Z,20.24
2023-05-05T18:35:01.781Z,19.98
2023-05-05T18:37:32.244Z,19.90
2023-05-05T18:39:59.130Z,20.13
2023-05-05T18:42:30.985Z,20.87
2023-05-05T18:44:57.869Z,20.77
2023-05-05T18:47:35.170Z,20.08
2023-05-05T18:50:04.201Z,20.39
2023-05-05T18:52:49.997Z,20.54
2023-05-05T18:55:19.238Z,19.35
2023-05-05T18:57:55.063Z,20.76
2023-05-05T19:00:23.851Z,19.99
2023-05-05T19:02:51.542Z,20.45
2023-05-05T19:05:18.683Z,20.28
2023-05-05T19:07:55.014Z,20.47
2023-05-05T19:10:23.080Z,20.52
2023-05-05T19:12:52.254Z,20.55
2023-05-05T19:15:23.721Z,20.34
2023-05-05T19:17:50.819Z,20.31
2023-05-05T19:20:17.756Z,20.45
2023-05-05T19:22:44.531Z,20.49
2023-05-05T19:25:23.425Z,19.98
2023-05-05T19:27:51.766Z,19.85
2023-05-05T19:30:18.522Z,19.89
2023-05-05T19:32:51.753Z,19.77
2023-05-05T19:35:27.361Z,20.45
2023-05-05T19:37:56.574Z,20.21
2023-05-05T19:40:23.321Z,19.15
2023-05-05T19:42:50.240Z,19.45
2023-05-05T19:45:17.976Z,20.35
2023-05-05T19:47:45.690Z,20.33
2023-05-05T19:50:15.426Z,20.02
2023-05-05T19:52:44.604Z,20.27
2023-05-05T19:55:13.467Z,19.85
2023-05-05T19:57:40.756Z,19.17
2023-05-05T20:00:10.692Z,19.41
2023-05-05T20:02:40.983Z,19.72
2023-05-05T20:05:08.621Z,20.32
2023-05-05T20:07:36.072Z,19.71
2023-05-05T20:10:10.357Z,19.93
2023-05-05T20:12:37.422Z,19.16
2023-05-05T20:15:04.800Z,19.17
2023-05-05T20:17:35.512Z,19.72
2023-05-05T20:20:03.399Z,20.10
2023-05-05T20:22:31.155Z,20.27
2023-05-05T20:24:58.337Z,20.35
2023-05-05T20:27:26.659Z,20.33
2023-05-05T20:29:54.799Z,20.33
2023-05-05T20:32:22.016Z,20.59
2023-05-05T20:34:48.994Z,20.57
2023-05-05T20:37:15.891Z,20.61
2023-05-05T20:39:44.423Z,20.55
2023-05-05T20:42:14.155Z,20.16
2023-05-05T20:44:45.862Z,20.22
2023-05-05T20:47:23.173Z,20.22
2023-05-05T20:49:49.831Z,20.14
2023-05-05T20:52:16.672Z,20.02
2023-05-05T20:54:46.826Z,20.27
2023-05-05T20:57:13.626Z,20.20
2023-05-05T20:59:44.093Z,20.37
2023-05-05T21:02:12.172Z,20.39
2023-05-05T21:04:38.964Z,20.36
2023-05-05T21:07:07.292Z,20.36
2023-05-05T21:09:35.579Z,20.22
2023-05-05T21:12:06.249Z,20.32
2023-05-05T21:14:33.663Z,19.73
2023-05-05T21:17:01.536Z,20.15
2023-05-05T21:19:28.185Z,20.07
2023-05-05T21:21:59.391Z,19.94
2023-05-05T21:24:28.295Z,19.87
2023-05-05T21:26:56.412Z,19.40
2023-05-05T21:29:26.817Z,18.83
2023-05-05T21:32:04.607Z,19.08
2023-05-05T21:34:32.625Z,19.05
2023-05-05T21:37:05.755Z,19.22
2023-05-05T21:39:34.368Z,19.89
2023-05-05T21:42:01.506Z,19.97
2023-05-05T21:44:29.951Z,20.00
2023-05-05T21:46:57.870Z,19.34
2023-05-05T21:49:29.467Z,19.92
2023-05-05T21:52:17.621Z,19.83
2023-05-05T21:54:46.941Z,19.70
2023-05-05T21:57:13.768Z,19.70
2023-05-05T21:59:41.422Z,19.53
2023-05-05T22:02:10.591Z,19.55
2023-05-05T22:04:38.166Z,19.48
2023-05-05T22:07:04.833Z,19.13
2023-05-05T22:09:31.909Z,18.33
2023-05-05T22:12:02.688Z,19.17
2023-05-05T22:14:34.181Z,18.24
2023-05-05T22:17:01.447Z,19.26
2023-05-05T22:19:30.377Z,19.14
2023-05-05T22:22:01.223Z,19.10
2023-05-05T22:24:28.020Z,18.31
2023-05-05T22:27:06.100Z,19.48
2023-05-05T22:29:34.617Z,19.30
2023-05-05T22:32:03.955Z,19.49
2023-05-05T22:34:36.855Z,19.24
2023-05-05T22:37:03.788Z,19.30
2023-05-05T22:39:30.834Z,19.50
2023-05-05T22:42:01.017Z,19.51
2023-05-05T22:44:30.606Z,19.41
2023-05-05T22:46:59.964Z,19.49
2023-05-05T22:49:34.237Z,19.48
2023-05-05T22:52:03.873Z,19.34
2023-05-05T22:54:30.581Z,19.39
2023-05-05T22:56:57.288Z,18.99
2023-05-05T22:59:26.159Z,19.25
2023-05-05T23:01:53.031Z,17.93
2023-05-05T23:04:19.763Z,18.53
2023-05-05T23:06:46.998Z,18.76
2023-05-05T23:09:14.102Z,19.31
2023-05-05T23:11:43.172Z,19.24
2023-05-05T23:14:09.758Z,19.16
2023-05-05T23:16:36.678Z,19.21
2023-05-05T23:19:03.790Z,18.98
2023-05-05T23:21:33.980Z,19.00
2023-05-05T23:24:06.703Z,18.86
2023-05-05T23:26:33.391Z,18.98
2023-05-05T23:29:02.557Z,18.95
2023-05-05T23:31:29.296Z,18.91
2023-05-05T23:33:55.987Z,18.47
2023-05-05T23:36:27.672Z,18.78
2023-05-05T23:38:54.231Z,18.77
2023-05-05T23:41:21.060Z,18.77
2023-05-05T23:43:51.964Z,18.83
2023-05-05T23:46:18.521Z,18.47
2023-05-05T23:48:45.252Z,18.71
2023-05-05T23:51:22.359Z,18.57
2023-05-05T23:53:50.749Z,18.17
2023-05-05T23:56:17.480Z,18.51
2023-05-05T23:58:44.020Z,18.17
